Goose Creek, South Carolina
Current Conditions -  °F | °C
As of 8:56 AM on Friday 31 Oct 2014 (Local Time) from KCHS Reporting Station
Scattered Clouds Scattered Clouds  
Wind Chill: 59°   Ceiling: Unl
Heat Index: 59°   Visibility: 10mi
Dew Point: 51°   Wind: 6mph
Humidity: 75%   Direction: 40°NE
Pressure: 29.9"   Gusts: NA
Location:  33°N, 80.04°W
Report Text: KCHS 311256Z 04005KT 10SM FEW055 SCT100 15/11 A2990 RMK AO2 SLP124 T01500106
Loading
Personal Weather Stations






























Interactive Weather Map
Tropical Storm Tracking
New forecast layout! Learn more

10-Day Weather Forecast

Advertisements
Track Severe Weather on mobile